Time;durP1;ratioP1;P1;durP2;ratioP2;P2;SDS_P1;SDS_P2;PMS_P1;PMS_P2;Temp;Humidity;BMP_temperature;BMP_pressure;BME280_temperature;BME280_humidity;BME280_pressure;Samples;Min_cycle;Max_cycle;Signal;HPM_P1;HPM_P2
2021/12/23 00:02:22;;;;;;;307.40;124.35;;;;;;;;;;5074386;28;20029;-64
2021/12/23 00:04:48;;;;;;;233.10;96.07;;;;;;;;;;5074711;28;20099;-65
2021/12/23 00:07:15;;;;;;;200.30;85.85;;;;;;;;;;5074620;28;20055;-65
2021/12/23 00:12:20;;;;;;;186.95;80.35;;;;;;;;;;5074513;28;20045;-65
2021/12/23 00:14:46;;;;;;;173.98;77.22;;;;;;;;;;5056611;28;20040;-63
2021/12/23 00:17:38;;;;;;;172.15;76.15;;;;;;;;;;5074164;28;20465;-63
2021/12/23 00:25:16;;;;;;;190.30;76.57;;;;;;;;;;5074291;28;20436;-64
2021/12/23 00:27:43;;;;;;;187.98;77.35;;;;;;;;;;5074182;28;20020;-64
2021/12/23 00:30:09;;;;;;;165.32;74.30;;;;;;;;;;5073991;28;20862;-64
2021/12/23 00:32:36;;;;;;;159.32;71.55;;;;;;;;;;5074067;28;20038;-63
2021/12/23 00:35:06;;;;;;;165.77;72.07;;;;;;;;;;5074114;28;20024;-63
2021/12/23 00:37:38;;;;;;;201.63;84.20;;;;;;;;;;5074006;28;20029;-64
2021/12/23 00:40:06;;;;;;;205.15;85.28;;;;;;;;;;5074040;28;20050;-63
2021/12/23 00:45:35;;;;;;;156.32;69.00;;;;;;;;;;5073973;28;20397;-64
2021/12/23 00:48:02;;;;;;;166.18;73.97;;;;;;;;;;5073799;28;20107;-64
2021/12/23 00:50:28;;;;;;;142.48;67.53;;;;;;;;;;5051926;28;20409;-64
2021/12/23 00:52:57;;;;;;;145.68;65.90;;;;;;;;;;5053760;28;20414;-65
2021/12/23 00:55:23;;;;;;;149.13;67.72;;;;;;;;;;5053692;28;20025;-64
2021/12/23 00:57:50;;;;;;;126.78;62.40;;;;;;;;;;5052377;28;20021;-64
2021/12/23 01:00:19;;;;;;;161.55;69.35;;;;;;;;;;5052078;28;20021;-64
2021/12/23 01:02:46;;;;;;;144.93;60.60;;;;;;;;;;5053601;28;20025;-64
2021/12/23 01:05:14;;;;;;;138.55;63.58;;;;;;;;;;5053599;28;20031;-64
2021/12/23 01:07:40;;;;;;;138.73;62.03;;;;;;;;;;5053791;28;20117;-64
2021/12/23 01:10:07;;;;;;;140.30;62.85;;;;;;;;;;5052084;28;20029;-64
2021/12/23 01:12:45;;;;;;;125.88;57.53;;;;;;;;;;5053411;28;20029;-64
2021/12/23 01:17:55;;;;;;;109.32;53.97;;;;;;;;;;5053406;28;20159;-64
2021/12/23 01:20:31;;;;;;;112.90;55.72;;;;;;;;;;5053365;28;20036;-64
2021/12/23 01:22:59;;;;;;;128.32;60.10;;;;;;;;;;5052825;28;20099;-64
2021/12/23 01:25:25;;;;;;;133.57;63.88;;;;;;;;;;5053258;28;20017;-64
2021/12/23 01:27:52;;;;;;;146.80;65.93;;;;;;;;;;5053214;28;20032;-64
2021/12/23 01:30:18;;;;;;;141.07;68.03;;;;;;;;;;5053110;28;20091;-64
2021/12/23 01:32:45;;;;;;;135.70;65.40;;;;;;;;;;5053110;28;20033;-64
2021/12/23 01:35:12;;;;;;;126.00;61.10;;;;;;;;;;5053165;28;20476;-64
2021/12/23 01:37:38;;;;;;;134.73;63.50;;;;;;;;;;5053067;28;20025;-64
2021/12/23 01:40:06;;;;;;;140.60;66.72;;;;;;;;;;5053078;28;20059;-64
2021/12/23 01:42:32;;;;;;;134.50;65.47;;;;;;;;;;5053231;28;20028;-63
2021/12/23 01:44:58;;;;;;;141.38;69.75;;;;;;;;;;5053043;28;20108;-65
2021/12/23 01:47:24;;;;;;;145.45;70.45;;;;;;;;;;5052990;28;20036;-65
2021/12/23 01:49:51;;;;;;;144.48;67.20;;;;;;;;;;5056632;28;20124;-65
2021/12/23 01:52:17;;;;;;;139.02;67.38;;;;;;;;;;5072977;28;20369;-65
2021/12/23 01:54:44;;;;;;;141.98;65.18;;;;;;;;;;5054907;28;20024;-64
2021/12/23 01:57:10;;;;;;;144.65;71.40;;;;;;;;;;5073151;28;20480;-63
2021/12/23 01:59:37;;;;;;;137.75;67.40;;;;;;;;;;5054811;28;20043;-64
2021/12/23 02:02:03;;;;;;;146.18;66.55;;;;;;;;;;5072809;28;20554;-64
2021/12/23 02:04:29;;;;;;;140.02;66.40;;;;;;;;;;5072877;28;20469;-64
2021/12/23 02:06:55;;;;;;;140.30;66.80;;;;;;;;;;5054755;28;20024;-64
2021/12/23 02:09:22;;;;;;;147.15;66.68;;;;;;;;;;5072677;28;20376;-64
2021/12/23 02:11:48;;;;;;;150.85;69.25;;;;;;;;;;5072751;28;20029;-64
2021/12/23 02:14:18;;;;;;;141.98;70.45;;;;;;;;;;5072708;28;20028;-64
2021/12/23 02:16:45;;;;;;;162.05;74.05;;;;;;;;;;5054766;28;20036;-64
2021/12/23 02:19:18;;;;;;;159.30;77.10;;;;;;;;;;5072906;28;20035;-64
2021/12/23 02:21:45;;;;;;;157.07;75.13;;;;;;;;;;5072710;28;20029;-65
2021/12/23 02:24:11;;;;;;;143.80;70.53;;;;;;;;;;5072636;28;20111;-66
2021/12/23 02:26:38;;;;;;;154.52;71.40;;;;;;;;;;5072590;28;20382;-66
2021/12/23 02:29:04;;;;;;;154.95;74.28;;;;;;;;;;5072737;28;20103;-64
2021/12/23 02:31:31;;;;;;;165.05;76.70;;;;;;;;;;5072776;28;20031;-64
2021/12/23 02:33:57;;;;;;;160.27;76.93;;;;;;;;;;5073994;28;20115;-65
2021/12/23 02:36:23;;;;;;;159.50;73.85;;;;;;;;;;5076356;28;20036;-64
2021/12/23 02:38:50;;;;;;;156.90;74.75;;;;;;;;;;5076306;28;20028;-64
2021/12/23 02:41:16;;;;;;;161.77;71.93;;;;;;;;;;5076215;28;20029;-64
2021/12/23 02:43:42;;;;;;;149.27;67.90;;;;;;;;;;5076165;28;20059;-63
2021/12/23 02:46:08;;;;;;;146.67;66.67;;;;;;;;;;5076098;28;20031;-64
2021/12/23 02:48:36;;;;;;;150.77;66.17;;;;;;;;;;5076425;28;20028;-64
2021/12/23 02:51:07;;;;;;;152.93;67.10;;;;;;;;;;5075777;28;20530;-64
2021/12/23 02:53:33;;;;;;;149.93;66.55;;;;;;;;;;5058010;28;20028;-64
2021/12/23 02:56:01;;;;;;;146.65;68.00;;;;;;;;;;5076063;28;20032;-63
2021/12/23 02:58:27;;;;;;;130.57;60.45;;;;;;;;;;5057968;28;20017;-63
2021/12/23 03:00:55;;;;;;;129.50;58.93;;;;;;;;;;5075907;28;20024;-64
2021/12/23 03:03:22;;;;;;;125.80;59.53;;;;;;;;;;5075523;28;20099;-64
2021/12/23 03:05:52;;;;;;;131.10;60.03;;;;;;;;;;5075855;28;20102;-63
2021/12/23 03:08:31;;;;;;;143.75;63.30;;;;;;;;;;5075741;28;20012;-64
2021/12/23 03:10:57;;;;;;;140.55;63.55;;;;;;;;;;5057737;28;20099;-64
2021/12/23 03:13:24;;;;;;;140.20;66.33;;;;;;;;;;5075636;28;20074;-63
2021/12/23 03:15:50;;;;;;;127.45;62.22;;;;;;;;;;5057707;28;20028;-63
2021/12/23 03:18:16;;;;;;;144.27;63.20;;;;;;;;;;5075609;28;20112;-63
2021/12/23 03:20:42;;;;;;;120.22;58.90;;;;;;;;;;5075539;28;20028;-63
2021/12/23 03:23:09;;;;;;;136.87;60.40;;;;;;;;;;5075238;28;20442;-63
2021/12/23 03:25:35;;;;;;;140.20;60.85;;;;;;;;;;5075773;28;20219;-63
2021/12/23 03:28:01;;;;;;;121.60;61.10;;;;;;;;;;5075376;28;20032;-63
2021/12/23 03:30:27;;;;;;;128.77;59.45;;;;;;;;;;5075293;28;20066;-63
2021/12/23 03:32:54;;;;;;;114.85;56.55;;;;;;;;;;5057340;28;20105;-64
2021/12/23 03:35:20;;;;;;;128.10;58.63;;;;;;;;;;5074984;28;20025;-63
2021/12/23 03:37:46;;;;;;;136.40;61.90;;;;;;;;;;5075222;28;20056;-63
2021/12/23 03:40:13;;;;;;;141.85;64.72;;;;;;;;;;5074903;28;20028;-64
2021/12/23 03:42:39;;;;;;;137.23;62.23;;;;;;;;;;5075133;28;20071;-63
2021/12/23 03:45:08;;;;;;;126.50;61.00;;;;;;;;;;5074699;28;20021;-63
2021/12/23 03:47:35;;;;;;;133.77;59.63;;;;;;;;;;5057074;28;20024;-66
2021/12/23 03:50:01;;;;;;;131.43;61.93;;;;;;;;;;5056701;28;20178;-65
2021/12/23 03:52:28;;;;;;;127.10;60.35;;;;;;;;;;5057003;28;20017;-65
2021/12/23 03:54:54;;;;;;;132.03;61.90;;;;;;;;;;5074769;28;20119;-65
2021/12/23 03:57:20;;;;;;;130.95;60.95;;;;;;;;;;5074917;28;20496;-66
2021/12/23 03:59:46;;;;;;;137.98;64.53;;;;;;;;;;5074536;28;20129;-64
2021/12/23 04:02:12;;;;;;;139.63;65.03;;;;;;;;;;5074764;28;20035;-65
2021/12/23 04:04:39;;;;;;;139.80;64.93;;;;;;;;;;5074758;28;20133;-65
2021/12/23 04:07:05;;;;;;;134.57;61.53;;;;;;;;;;5074653;28;20408;-65
2021/12/23 04:09:31;;;;;;;126.27;59.90;;;;;;;;;;5074222;28;20473;-65
2021/12/23 04:11:57;;;;;;;132.03;60.80;;;;;;;;;;5074556;28;20031;-65
2021/12/23 04:14:24;;;;;;;131.55;60.35;;;;;;;;;;5074763;28;20056;-65
2021/12/23 04:16:50;;;;;;;137.43;62.90;;;;;;;;;;5074428;28;20020;-65
2021/12/23 04:19:17;;;;;;;128.03;61.83;;;;;;;;;;5074086;28;20029;-66
2021/12/23 04:21:43;;;;;;;131.85;60.92;;;;;;;;;;5074344;28;20387;-63
2021/12/23 04:24:10;;;;;;;136.87;63.57;;;;;;;;;;5056386;28;20036;-62
2021/12/23 04:26:41;;;;;;;147.60;63.23;;;;;;;;;;5056388;28;20024;-62
2021/12/23 04:29:08;;;;;;;134.55;61.13;;;;;;;;;;5074217;28;20028;-62
2021/12/23 04:31:34;;;;;;;137.70;63.90;;;;;;;;;;5074154;28;20082;-62
2021/12/23 04:34:01;;;;;;;136.10;61.78;;;;;;;;;;5074102;28;20063;-62
2021/12/23 04:36:29;;;;;;;150.23;65.40;;;;;;;;;;5074130;28;20020;-62
2021/12/23 04:38:55;;;;;;;140.53;64.00;;;;;;;;;;5074018;28;20033;-62
2021/12/23 04:41:21;;;;;;;151.93;68.57;;;;;;;;;;5073954;28;20104;-62
2021/12/23 04:43:48;;;;;;;141.20;61.77;;;;;;;;;;5073936;28;20377;-62
2021/12/23 04:46:14;;;;;;;145.90;64.77;;;;;;;;;;5074217;28;20154;-63
2021/12/23 04:48:40;;;;;;;135.53;65.77;;;;;;;;;;5073839;28;20020;-62
2021/12/23 04:51:07;;;;;;;155.70;66.80;;;;;;;;;;5073659;28;20060;-62
2021/12/23 04:53:33;;;;;;;155.20;64.83;;;;;;;;;;5073771;28;20032;-62
2021/12/23 04:56:00;;;;;;;145.73;66.20;;;;;;;;;;5073017;28;20032;-62
2021/12/23 04:58:26;;;;;;;142.90;64.80;;;;;;;;;;5073564;28;20020;-62
2021/12/23 05:00:52;;;;;;;146.07;64.37;;;;;;;;;;5055633;28;20464;-63
2021/12/23 05:03:19;;;;;;;143.23;65.50;;;;;;;;;;5073548;28;20032;-63
2021/12/23 05:05:46;;;;;;;141.73;65.20;;;;;;;;;;5055633;28;20086;-63
2021/12/23 05:08:13;;;;;;;136.82;63.05;;;;;;;;;;5073203;28;20082;-62
2021/12/23 05:10:40;;;;;;;142.50;64.55;;;;;;;;;;5073481;28;20136;-63
2021/12/23 05:13:06;;;;;;;138.63;62.10;;;;;;;;;;5053126;28;20067;-62
2021/12/23 05:15:32;;;;;;;127.10;61.38;;;;;;;;;;5072973;28;20107;-63
2021/12/23 05:17:59;;;;;;;140.95;61.53;;;;;;;;;;5072985;28;20021;-63
2021/12/23 05:20:27;;;;;;;132.77;63.50;;;;;;;;;;5073201;28;20492;-62
2021/12/23 05:22:54;;;;;;;132.47;59.93;;;;;;;;;;5072987;28;20107;-63
2021/12/23 05:25:20;;;;;;;143.48;60.85;;;;;;;;;;5055218;28;20024;-62
2021/12/23 05:27:47;;;;;;;140.63;58.43;;;;;;;;;;5073141;28;20099;-62
2021/12/23 05:30:15;;;;;;;130.43;56.40;;;;;;;;;;5072999;28;20029;-63
2021/12/23 05:32:42;;;;;;;132.32;57.95;;;;;;;;;;5073021;28;20074;-62
2021/12/23 05:35:09;;;;;;;130.95;58.50;;;;;;;;;;5072859;28;20484;-62
2021/12/23 05:37:35;;;;;;;124.03;57.92;;;;;;;;;;5054643;28;20016;-62
2021/12/23 05:40:01;;;;;;;132.63;61.17;;;;;;;;;;5072812;28;20116;-63
2021/12/23 05:42:28;;;;;;;136.85;63.22;;;;;;;;;;5073060;28;20035;-63
2021/12/23 05:44:54;;;;;;;142.00;63.73;;;;;;;;;;5072974;28;20029;-62
2021/12/23 05:47:20;;;;;;;138.18;62.67;;;;;;;;;;5073013;28;20027;-63
2021/12/23 05:49:46;;;;;;;129.88;61.20;;;;;;;;;;5072646;28;20067;-62
2021/12/23 05:52:12;;;;;;;136.90;60.38;;;;;;;;;;5072977;28;20461;-62
2021/12/23 05:54:39;;;;;;;123.50;59.27;;;;;;;;;;5072931;28;20089;-62
2021/12/23 05:57:05;;;;;;;132.27;60.83;;;;;;;;;;5054968;28;20116;-62
2021/12/23 05:59:32;;;;;;;139.15;64.70;;;;;;;;;;5072842;28;20036;-62
2021/12/23 06:01:59;;;;;;;160.30;70.78;;;;;;;;;;5054854;28;20040;-62
2021/12/23 06:04:26;;;;;;;157.18;74.25;;;;;;;;;;5072825;28;20031;-62
2021/12/23 06:06:52;;;;;;;199.68;85.53;;;;;;;;;;5072462;28;20571;-62
2021/12/23 06:09:18;;;;;;;163.13;74.78;;;;;;;;;;5076780;28;20107;-62
2021/12/23 06:11:45;;;;;;;169.75;73.80;;;;;;;;;;5076703;28;20033;-62
2021/12/23 06:14:11;;;;;;;166.52;73.05;;;;;;;;;;5076753;28;20060;-62
2021/12/23 06:16:37;;;;;;;163.88;74.13;;;;;;;;;;5076399;28;20059;-62
2021/12/23 06:19:04;;;;;;;161.93;71.50;;;;;;;;;;5076412;28;20484;-62
2021/12/23 06:21:31;;;;;;;150.45;68.40;;;;;;;;;;5076571;28;20036;-62
2021/12/23 06:23:58;;;;;;;163.02;68.28;;;;;;;;;;5076530;28;20458;-62
2021/12/23 06:26:24;;;;;;;159.35;72.03;;;;;;;;;;5076269;28;20082;-63
2021/12/23 06:28:51;;;;;;;150.27;65.90;;;;;;;;;;5076150;28;20029;-64
2021/12/23 06:31:17;;;;;;;131.00;59.80;;;;;;;;;;5076092;28;20028;-64
2021/12/23 06:33:43;;;;;;;145.50;62.13;;;;;;;;;;5076078;28;20060;-63
2021/12/23 06:36:09;;;;;;;156.60;62.85;;;;;;;;;;5058130;28;20112;-64
2021/12/23 06:38:35;;;;;;;157.07;64.57;;;;;;;;;;5075815;28;20134;-63
2021/12/23 06:41:02;;;;;;;133.00;56.33;;;;;;;;;;5075949;28;20036;-64
2021/12/23 06:43:28;;;;;;;131.02;54.35;;;;;;;;;;5075860;28;20533;-65
2021/12/23 06:45:54;;;;;;;130.18;54.60;;;;;;;;;;5058057;28;20063;-63
2021/12/23 06:48:20;;;;;;;131.35;53.92;;;;;;;;;;5075550;28;20024;-64
2021/12/23 06:50:47;;;;;;;131.20;58.50;;;;;;;;;;5075634;28;20507;-63
2021/12/23 06:53:14;;;;;;;122.53;55.70;;;;;;;;;;5057934;28;20617;-64
2021/12/23 06:55:40;;;;;;;135.50;56.00;;;;;;;;;;5075879;28;20361;-65
2021/12/23 06:58:07;;;;;;;129.30;57.75;;;;;;;;;;5075755;28;20163;-65
2021/12/23 07:00:33;;;;;;;139.73;60.90;;;;;;;;;;5075685;28;20063;-65
2021/12/23 07:02:59;;;;;;;129.48;56.83;;;;;;;;;;5075513;28;20029;-65
2021/12/23 07:05:26;;;;;;;144.45;59.40;;;;;;;;;;5075591;28;20031;-65
2021/12/23 07:08:08;;;;;;;130.35;56.55;;;;;;;;;;5075711;28;20025;-65
2021/12/23 07:10:34;;;;;;;131.63;58.08;;;;;;;;;;5057485;28;20032;-66
2021/12/23 07:13:01;;;;;;;126.38;53.58;;;;;;;;;;5075458;28;20465;-65
2021/12/23 07:15:27;;;;;;;140.93;58.80;;;;;;;;;;5075482;28;20033;-65
2021/12/23 07:17:54;;;;;;;148.20;60.88;;;;;;;;;;5075252;28;20020;-65
2021/12/23 07:20:21;;;;;;;160.43;61.47;;;;;;;;;;5074240;28;20397;-65
2021/12/23 07:22:47;;;;;;;125.15;56.17;;;;;;;;;;5057279;28;20028;-65
2021/12/23 07:25:14;;;;;;;131.02;57.42;;;;;;;;;;5075313;28;20020;-66
2021/12/23 07:27:41;;;;;;;113.70;52.40;;;;;;;;;;5075676;28;20035;-65
2021/12/23 07:30:07;;;;;;;123.80;55.92;;;;;;;;;;5057147;28;20355;-66
2021/12/23 07:32:34;;;;;;;123.07;54.92;;;;;;;;;;5075229;28;20055;-66
2021/12/23 07:35:00;;;;;;;118.07;55.13;;;;;;;;;;5057103;28;20067;-65
2021/12/23 07:37:26;;;;;;;117.50;52.45;;;;;;;;;;5057118;28;20052;-66
2021/12/23 07:39:54;;;;;;;116.57;51.70;;;;;;;;;;5074626;28;20419;-65
2021/12/23 07:42:21;;;;;;;111.00;50.20;;;;;;;;;;5071951;28;20021;-66
2021/12/23 07:44:47;;;;;;;131.80;50.53;;;;;;;;;;5074047;28;20035;-65
2021/12/23 07:47:14;;;;;;;110.13;49.05;;;;;;;;;;5074597;28;20032;-65
2021/12/23 07:49:41;;;;;;;112.38;51.47;;;;;;;;;;5074533;28;20033;-66
2021/12/23 07:52:08;;;;;;;107.40;48.25;;;;;;;;;;5074863;28;20037;-66
2021/12/23 07:54:35;;;;;;;113.32;50.90;;;;;;;;;;5056777;28;20119;-66
2021/12/23 07:57:01;;;;;;;116.53;55.20;;;;;;;;;;5056665;28;20119;-66
2021/12/23 07:59:28;;;;;;;118.68;56.65;;;;;;;;;;5074802;28;20602;-66
2021/12/23 08:01:55;;;;;;;119.38;57.60;;;;;;;;;;5056560;28;20036;-66
2021/12/23 08:04:21;;;;;;;117.35;56.72;;;;;;;;;;5074525;28;20024;-65
2021/12/23 08:06:52;;;;;;;100.47;47.05;;;;;;;;;;5074472;28;20016;-66
2021/12/23 08:09:18;;;;;;;107.03;48.88;;;;;;;;;;5074112;28;20051;-66
2021/12/23 08:11:44;;;;;;;105.28;46.40;;;;;;;;;;5074338;28;20055;-67
2021/12/23 08:14:11;;;;;;;97.47;45.72;;;;;;;;;;5074210;28;20138;-65
2021/12/23 08:16:37;;;;;;;108.88;46.67;;;;;;;;;;5056345;28;20021;-65
2021/12/23 08:19:04;;;;;;;103.72;47.50;;;;;;;;;;5074092;28;20019;-66
2021/12/23 08:21:30;;;;;;;95.72;44.40;;;;;;;;;;5074071;28;20078;-66
2021/12/23 08:23:56;;;;;;;89.18;43.10;;;;;;;;;;5074212;28;20013;-66
2021/12/23 08:26:27;;;;;;;93.95;45.90;;;;;;;;;;5074076;28;20356;-66
2021/12/23 08:28:54;;;;;;;126.50;57.67;;;;;;;;;;5074177;28;20027;-66
2021/12/23 08:31:21;;;;;;;110.38;48.97;;;;;;;;;;5073945;28;20134;-66
2021/12/23 08:33:48;;;;;;;97.88;45.05;;;;;;;;;;5073799;28;20104;-65
2021/12/23 08:36:14;;;;;;;92.10;46.30;;;;;;;;;;5073849;28;20024;-66
2021/12/23 08:38:41;;;;;;;102.40;50.15;;;;;;;;;;5073998;28;20029;-65
2021/12/23 08:41:08;;;;;;;103.60;48.33;;;;;;;;;;5073978;28;20491;-66
2021/12/23 08:43:34;;;;;;;98.82;48.25;;;;;;;;;;5073785;28;20020;-65
2021/12/23 08:46:00;;;;;;;90.13;46.35;;;;;;;;;;5074007;28;20033;-66
2021/12/23 08:48:27;;;;;;;103.53;48.95;;;;;;;;;;5073708;28;20020;-66
2021/12/23 08:50:53;;;;;;;97.18;44.17;;;;;;;;;;5073352;28;20437;-66
2021/12/23 08:53:19;;;;;;;84.72;42.42;;;;;;;;;;5073574;28;20560;-67
2021/12/23 08:55:46;;;;;;;84.93;43.90;;;;;;;;;;5073235;28;20540;-67
2021/12/23 08:58:12;;;;;;;87.03;41.45;;;;;;;;;;5073728;28;20086;-67
2021/12/23 09:00:39;;;;;;;79.82;39.70;;;;;;;;;;5055561;28;20052;-67
2021/12/23 09:03:06;;;;;;;75.15;38.13;;;;;;;;;;5073500;28;20032;-66
2021/12/23 09:05:33;;;;;;;83.18;39.85;;;;;;;;;;5071832;28;20063;-66
2021/12/23 09:07:59;;;;;;;87.32;43.63;;;;;;;;;;5054640;28;20159;-69
2021/12/23 09:10:25;;;;;;;80.28;39.03;;;;;;;;;;5073147;28;20127;-67
2021/12/23 09:12:51;;;;;;;76.97;38.75;;;;;;;;;;5073258;28;20467;-69
2021/12/23 09:15:18;;;;;;;76.32;39.83;;;;;;;;;;5055252;28;20020;-67
2021/12/23 09:17:46;;;;;;;74.05;38.25;;;;;;;;;;5072995;28;20492;-67
2021/12/23 09:20:13;;;;;;;84.95;40.38;;;;;;;;;;5055020;28;20048;-66
2021/12/23 09:22:39;;;;;;;91.57;46.83;;;;;;;;;;5054994;28;20116;-67
2021/12/23 09:25:11;;;;;;;81.43;41.50;;;;;;;;;;5072869;28;20028;-66
2021/12/23 09:27:54;;;;;;;82.65;39.97;;;;;;;;;;5072789;28;20103;-66
2021/12/23 09:33:06;;;;;;;75.38;39.00;;;;;;;;;;5072748;28;20040;-68
2021/12/23 09:35:32;;;;;;;74.25;39.10;;;;;;;;;;5054906;28;20020;-68
2021/12/23 09:37:59;;;;;;;86.88;42.15;;;;;;;;;;5072975;28;20077;-68
2021/12/23 09:40:29;;;;;;;83.90;42.40;;;;;;;;;;5072409;28;20028;-69
2021/12/23 09:42:55;;;;;;;85.45;43.63;;;;;;;;;;5070481;28;20194;-64
2021/12/23 09:45:21;;;;;;;85.30;44.13;;;;;;;;;;5071096;28;20009;-63
2021/12/23 09:47:49;;;;;;;91.00;44.90;;;;;;;;;;5072797;28;20021;-66
2021/12/23 09:50:17;;;;;;;76.95;41.17;;;;;;;;;;5072354;28;20127;-65
2021/12/23 09:52:46;;;;;;;87.60;43.25;;;;;;;;;;5072397;28;20029;-64
2021/12/23 09:55:14;;;;;;;93.68;42.85;;;;;;;;;;5072698;28;20086;-65
2021/12/23 09:57:41;;;;;;;96.80;47.28;;;;;;;;;;5053585;28;20024;-65
2021/12/23 10:00:11;;;;;;;101.18;48.92;;;;;;;;;;5072535;28;20104;-64
2021/12/23 10:02:40;;;;;;;84.22;45.05;;;;;;;;;;5054128;28;20036;-64
2021/12/23 10:05:06;;;;;;;78.85;41.40;;;;;;;;;;5072701;28;20029;-66
2021/12/23 10:07:33;;;;;;;88.60;44.30;;;;;;;;;;5071689;28;20025;-65
2021/12/23 10:32:37;;;;;;;92.95;46.35;;;;;;;;;;5056109;28;20063;-65
2021/12/23 10:39:46;;;;;;;106.53;51.95;;;;;;;;;;5071547;28;20032;-63
2021/12/23 10:42:23;;;;;;;101.03;50.67;;;;;;;;;;5072183;28;20115;-66
2021/12/23 10:44:50;;;;;;;103.25;51.05;;;;;;;;;;5072458;28;20104;-66
2021/12/23 10:47:38;;;;;;;101.72;50.78;;;;;;;;;;5068846;28;20100;-66
2021/12/23 10:50:24;;;;;;;127.80;57.45;;;;;;;;;;5071056;28;20182;-66
2021/12/23 10:53:13;;;;;;;131.13;53.83;;;;;;;;;;5071484;28;20029;-66
2021/12/23 10:58:25;;;;;;;109.18;54.22;;;;;;;;;;5075489;28;20501;-66
2021/12/23 11:00:53;;;;;;;120.07;57.13;;;;;;;;;;5075789;28;20054;-66
2021/12/23 11:03:41;;;;;;;120.00;57.25;;;;;;;;;;5075435;28;20057;-66
2021/12/23 11:42:01;;;;;;;110.97;54.63;;;;;;;;;;5075116;28;20040;-65
2021/12/23 11:43:57;;;;;;;126.50;59.35;;;;;;;;;;5059920;28;20086;-65
2021/12/23 11:46:35;;;;;;;103.13;51.00;;;;;;;;;;5074874;28;20070;-65
2021/12/23 11:49:06;;;;;;;101.82;50.63;;;;;;;;;;5074162;28;20066;-64
2021/12/23 11:51:35;;;;;;;117.82;54.05;;;;;;;;;;5064215;28;20057;-64
2021/12/23 11:54:04;;;;;;;107.60;50.42;;;;;;;;;;5054839;28;20021;-64
2021/12/23 11:56:31;;;;;;;98.10;50.20;;;;;;;;;;5053920;28;20032;-65
2021/12/23 11:58:59;;;;;;;96.57;49.40;;;;;;;;;;5054696;28;20021;-64
2021/12/23 12:01:30;;;;;;;107.55;53.28;;;;;;;;;;5036832;28;20037;-64
2021/12/23 12:04:06;;;;;;;118.75;55.13;;;;;;;;;;5036758;28;20374;-64
2021/12/23 12:06:40;;;;;;;115.57;54.10;;;;;;;;;;5036320;28;20116;-65
2021/12/23 12:09:28;;;;;;;95.72;46.75;;;;;;;;;;5054656;28;20032;-64
2021/12/23 12:12:00;;;;;;;109.97;49.65;;;;;;;;;;5053765;28;20136;-63
2021/12/23 12:14:41;;;;;;;181.63;75.95;;;;;;;;;;5034866;28;20035;-63
2021/12/23 12:17:20;;;;;;;134.18;62.30;;;;;;;;;;5053290;28;20457;-63
2021/12/23 12:20:01;;;;;;;107.53;51.88;;;;;;;;;;5054374;28;20112;-63
2021/12/23 12:22:45;;;;;;;104.38;48.10;;;;;;;;;;5054152;28;20027;-63
2021/12/23 12:25:24;;;;;;;261.13;110.03;;;;;;;;;;5054017;28;20021;-63
2021/12/23 12:27:56;;;;;;;412.38;177.75;;;;;;;;;;5036231;28;20051;-63
2021/12/23 12:30:46;;;;;;;141.73;66.22;;;;;;;;;;5054126;28;20024;-63
2021/12/23 12:33:13;;;;;;;132.18;57.22;;;;;;;;;;5045759;28;20041;-63
2021/12/23 12:35:41;;;;;;;89.78;46.47;;;;;;;;;;5054104;28;20021;-63
2021/12/23 12:38:11;;;;;;;83.28;43.17;;;;;;;;;;5054007;28;20094;-63
2021/12/23 12:40:57;;;;;;;127.43;56.95;;;;;;;;;;5054100;28;20029;-63
2021/12/23 12:43:48;;;;;;;85.50;41.25;;;;;;;;;;5053973;28;20029;-63
2021/12/23 12:46:16;;;;;;;89.10;44.00;;;;;;;;;;5053728;28;20343;-63
2021/12/23 12:48:58;;;;;;;96.03;45.90;;;;;;;;;;5054011;28;20028;-63
2021/12/23 12:51:26;;;;;;;90.47;44.67;;;;;;;;;;5053118;28;20053;-63
2021/12/23 12:54:02;;;;;;;92.47;44.75;;;;;;;;;;5035855;28;20362;-63
2021/12/23 12:56:29;;;;;;;114.53;49.47;;;;;;;;;;5053731;28;20029;-62
2021/12/23 12:58:55;;;;;;;110.40;49.53;;;;;;;;;;5053819;28;20078;-63
2021/12/23 13:01:35;;;;;;;99.18;47.72;;;;;;;;;;5053404;28;20111;-63
2021/12/23 13:04:03;;;;;;;103.20;47.75;;;;;;;;;;5053385;28;20043;-63
2021/12/23 13:06:39;;;;;;;102.57;47.35;;;;;;;;;;5053370;28;20025;-63
2021/12/23 13:09:07;;;;;;;92.40;45.08;;;;;;;;;;5053348;28;20037;-63
2021/12/23 13:11:36;;;;;;;87.47;44.92;;;;;;;;;;5053170;28;20033;-63
2021/12/23 13:14:04;;;;;;;89.57;44.97;;;;;;;;;;5035399;28;20043;-63
2021/12/23 13:16:31;;;;;;;90.53;42.38;;;;;;;;;;5053126;28;20033;-63
2021/12/23 13:19:24;;;;;;;116.75;52.72;;;;;;;;;;5034890;28;20409;-63
2021/12/23 13:21:55;;;;;;;119.88;54.47;;;;;;;;;;5032288;28;20036;-63
2021/12/23 13:24:22;;;;;;;118.65;51.53;;;;;;;;;;5053019;28;20047;-63
2021/12/23 13:26:49;;;;;;;115.45;51.95;;;;;;;;;;5053418;28;20079;-63
2021/12/23 13:29:15;;;;;;;109.07;50.47;;;;;;;;;;5053204;28;20021;-63
2021/12/23 13:31:42;;;;;;;101.13;47.38;;;;;;;;;;5053068;28;20478;-63
2021/12/23 13:34:09;;;;;;;104.40;49.95;;;;;;;;;;5053061;28;20033;-63
2021/12/23 13:36:40;;;;;;;115.00;54.00;;;;;;;;;;5052852;28;20163;-63
2021/12/23 13:39:12;;;;;;;102.13;50.60;;;;;;;;;;5035003;28;20071;-63
2021/12/23 13:41:39;;;;;;;89.82;45.22;;;;;;;;;;5052651;28;20028;-63
2021/12/23 13:44:15;;;;;;;91.25;44.03;;;;;;;;;;5052875;28;20027;-63
2021/12/23 13:46:42;;;;;;;122.47;56.78;;;;;;;;;;5053172;28;20079;-63
2021/12/23 13:49:08;;;;;;;106.47;54.72;;;;;;;;;;5053157;28;20105;-63
2021/12/23 13:51:36;;;;;;;94.68;47.35;;;;;;;;;;5034432;28;20493;-63
2021/12/23 13:54:04;;;;;;;103.55;50.83;;;;;;;;;;5034685;28;20048;-63
2021/12/23 13:56:31;;;;;;;103.28;52.08;;;;;;;;;;5052806;28;20083;-63
2021/12/23 13:59:08;;;;;;;90.63;44.60;;;;;;;;;;5052676;28;20025;-63
2021/12/23 14:01:34;;;;;;;84.18;41.83;;;;;;;;;;5034837;28;20378;-63
2021/12/23 14:04:00;;;;;;;81.88;43.65;;;;;;;;;;5043092;28;20120;-64
2021/12/23 14:06:27;;;;;;;81.50;41.65;;;;;;;;;;5054344;28;20354;-63
2021/12/23 14:08:53;;;;;;;87.18;42.92;;;;;;;;;;5072880;28;20021;-63
2021/12/23 14:11:19;;;;;;;95.60;47.80;;;;;;;;;;5072613;28;20123;-63
2021/12/23 14:13:45;;;;;;;95.15;46.80;;;;;;;;;;5072706;28;20452;-63
2021/12/23 14:16:11;;;;;;;88.70;46.22;;;;;;;;;;5072591;28;20039;-63
2021/12/23 14:23:31;;;;;;;107.15;52.15;;;;;;;;;;5072538;28;20081;-64
2021/12/23 14:26:02;;;;;;;102.45;49.40;;;;;;;;;;5072813;28;20111;-64
2021/12/23 14:28:42;;;;;;;126.90;62.00;;;;;;;;;;5073238;28;20082;-64
2021/12/23 14:31:15;;;;;;;125.05;60.17;;;;;;;;;;5058424;28;20036;-64
2021/12/23 14:33:44;;;;;;;119.20;56.97;;;;;;;;;;5058307;28;20016;-64
2021/12/23 14:36:10;;;;;;;141.80;61.13;;;;;;;;;;5076286;28;20048;-64
2021/12/23 14:38:39;;;;;;;106.45;52.97;;;;;;;;;;5076239;28;20123;-64
2021/12/23 14:41:07;;;;;;;116.05;57.70;;;;;;;;;;5076274;28;20469;-64
2021/12/23 14:43:53;;;;;;;136.20;67.07;;;;;;;;;;5076175;28;20037;-64
2021/12/23 14:46:19;;;;;;;128.98;59.35;;;;;;;;;;5076176;28;20448;-64
2021/12/23 14:51:28;;;;;;;159.05;72.30;;;;;;;;;;5075466;28;20056;-64
2021/12/23 14:54:27;;;;;;;166.70;77.05;;;;;;;;;;5075979;28;20035;-64
2021/12/23 14:57:07;;;;;;;139.43;64.35;;;;;;;;;;4974546;28;20519;-64
2021/12/23 14:59:44;;;;;;;148.25;70.53;;;;;;;;;;4958498;28;20079;-64
2021/12/23 15:02:10;;;;;;;154.23;69.93;;;;;;;;;;4974541;28;20057;-64
2021/12/23 15:04:37;;;;;;;152.38;69.18;;;;;;;;;;4958523;28;20326;-64
2021/12/23 15:07:07;;;;;;;183.40;83.53;;;;;;;;;;4974524;28;20118;-64
2021/12/23 15:09:37;;;;;;;205.88;86.80;;;;;;;;;;4974474;28;20031;-64
2021/12/23 15:12:17;;;;;;;158.55;74.97;;;;;;;;;;4958236;28;20451;-64
2021/12/23 15:14:48;;;;;;;163.48;74.68;;;;;;;;;;4974448;28;20029;-64
2021/12/23 15:17:22;;;;;;;132.98;65.35;;;;;;;;;;4974389;28;20038;-64
2021/12/23 15:19:53;;;;;;;125.10;58.97;;;;;;;;;;4974320;28;20109;-64
2021/12/23 15:22:24;;;;;;;120.90;57.42;;;;;;;;;;4974453;28;20039;-64
2021/12/23 15:25:01;;;;;;;146.63;68.00;;;;;;;;;;4974358;28;20069;-64
2021/12/23 15:27:30;;;;;;;166.60;70.93;;;;;;;;;;4958075;28;20409;-64
2021/12/23 15:30:00;;;;;;;168.30;72.55;;;;;;;;;;4974201;28;20098;-64
2021/12/23 15:32:28;;;;;;;146.63;71.55;;;;;;;;;;5024587;28;20047;-64
2021/12/23 15:35:03;;;;;;;163.43;78.00;;;;;;;;;;5075281;28;20020;-64
2021/12/23 15:37:36;;;;;;;179.27;85.55;;;;;;;;;;5057343;28;20039;-64
2021/12/23 15:40:04;;;;;;;175.02;85.50;;;;;;;;;;5074698;28;20123;-64
2021/12/23 15:42:30;;;;;;;169.52;84.18;;;;;;;;;;5056916;28;20036;-64
2021/12/23 15:44:56;;;;;;;177.85;84.80;;;;;;;;;;5057177;28;20127;-64